sensor_id;sensor_type;location;lat;lon;timestamp;temperature;humidity
20489;DHT22;10403;54.092;12.122;2024-02-26T00:02:23;4.40;99.90
20489;DHT22;10403;54.092;12.122;2024-02-26T00:04:50;4.40;99.90
20489;DHT22;10403;54.092;12.122;2024-02-26T00:07:17;4.40;99.90
20489;DHT22;10403;54.092;12.122;2024-02-26T00:09:45;4.40;99.90
20489;DHT22;10403;54.092;12.122;2024-02-26T00:12:12;4.40;99.90
20489;DHT22;10403;54.092;12.122;2024-02-26T00:14:39;4.30;99.90
20489;DHT22;10403;54.092;12.122;2024-02-26T00:17:08;4.30;99.90
20489;DHT22;10403;54.092;12.122;2024-02-26T00:19:35;4.30;99.90
20489;DHT22;10403;54.092;12.122;2024-02-26T00:22:03;4.30;99.90
20489;DHT22;10403;54.092;12.122;2024-02-26T00:24:30;4.20;99.90
20489;DHT22;10403;54.092;12.122;2024-02-26T00:26:58;4.30;99.90
20489;DHT22;10403;54.092;12.122;2024-02-26T00:29:26;4.20;99.90
20489;DHT22;10403;54.092;12.122;2024-02-26T00:31:53;4.20;99.90
20489;DHT22;10403;54.092;12.122;2024-02-26T00:34:20;4.20;99.90
20489;DHT22;10403;54.092;12.122;2024-02-26T00:36:48;4.20;99.90
20489;DHT22;10403;54.092;12.122;2024-02-26T00:39:15;4.20;99.90
20489;DHT22;10403;54.092;12.122;2024-02-26T00:41:42;4.20;99.90
20489;DHT22;10403;54.092;12.122;2024-02-26T00:44:09;4.10;99.90
20489;DHT22;10403;54.092;12.122;2024-02-26T00:46:36;4.10;99.90
20489;DHT22;10403;54.092;12.122;2024-02-26T00:49:03;4.10;99.90
20489;DHT22;10403;54.092;12.122;2024-02-26T00:51:31;4.10;99.90
20489;DHT22;10403;54.092;12.122;2024-02-26T00:53:58;4.10;99.90
20489;DHT22;10403;54.092;12.122;2024-02-26T00:56:26;4.10;99.90
20489;DHT22;10403;54.092;12.122;2024-02-26T00:58:53;4.10;99.90
20489;DHT22;10403;54.092;12.122;2024-02-26T01:01:20;4.10;99.90
20489;DHT22;10403;54.092;12.122;2024-02-26T01:03:48;4.10;99.90
20489;DHT22;10403;54.092;12.122;2024-02-26T01:06:15;4.10;99.90
20489;DHT22;10403;54.092;12.122;2024-02-26T01:08:43;4.00;99.90
20489;DHT22;10403;54.092;12.122;2024-02-26T01:11:10;4.00;99.90
20489;DHT22;10403;54.092;12.122;2024-02-26T01:13:37;4.00;99.90
20489;DHT22;10403;54.092;12.122;2024-02-26T01:16:04;4.00;99.90
20489;DHT22;10403;54.092;12.122;2024-02-26T01:18:32;4.00;99.90
20489;DHT22;10403;54.092;12.122;2024-02-26T01:20:59;4.00;99.90
20489;DHT22;10403;54.092;12.122;2024-02-26T01:23:27;4.00;99.90
20489;DHT22;10403;54.092;12.122;2024-02-26T01:25:54;3.90;99.90
20489;DHT22;10403;54.092;12.122;2024-02-26T01:28:21;4.00;99.90
20489;DHT22;10403;54.092;12.122;2024-02-26T01:30:48;4.00;99.90
20489;DHT22;10403;54.092;12.122;2024-02-26T01:33:15;3.90;99.90
20489;DHT22;10403;54.092;12.122;2024-02-26T01:35:43;3.90;99.90
20489;DHT22;10403;54.092;12.122;2024-02-26T01:38:10;3.90;99.90
20489;DHT22;10403;54.092;12.122;2024-02-26T01:40:37;3.80;99.90
20489;DHT22;10403;54.092;12.122;2024-02-26T01:43:05;3.80;99.90
20489;DHT22;10403;54.092;12.122;2024-02-26T01:45:32;3.80;99.90
20489;DHT22;10403;54.092;12.122;2024-02-26T01:48:00;3.80;99.90
20489;DHT22;10403;54.092;12.122;2024-02-26T01:50:28;3.80;99.90
20489;DHT22;10403;54.092;12.122;2024-02-26T01:52:56;3.80;99.90
20489;DHT22;10403;54.092;12.122;2024-02-26T01:55:24;3.80;99.90
20489;DHT22;10403;54.092;12.122;2024-02-26T01:57:53;3.80;99.90
20489;DHT22;10403;54.092;12.122;2024-02-26T02:00:21;3.80;99.90
20489;DHT22;10403;54.092;12.122;2024-02-26T02:02:50;3.80;99.90
20489;DHT22;10403;54.092;12.122;2024-02-26T02:05:18;3.70;99.90
20489;DHT22;10403;54.092;12.122;2024-02-26T02:07:47;3.70;99.90
20489;DHT22;10403;54.092;12.122;2024-02-26T02:10:16;3.70;99.90
20489;DHT22;10403;54.092;12.122;2024-02-26T02:12:45;3.70;99.90
20489;DHT22;10403;54.092;12.122;2024-02-26T02:15:12;3.70;99.90
20489;DHT22;10403;54.092;12.122;2024-02-26T02:17:40;3.70;99.90
20489;DHT22;10403;54.092;12.122;2024-02-26T02:20:15;3.60;99.90
20489;DHT22;10403;54.092;12.122;2024-02-26T02:22:47;3.70;99.90
20489;DHT22;10403;54.092;12.122;2024-02-26T02:25:14;3.70;99.90
20489;DHT22;10403;54.092;12.122;2024-02-26T02:27:42;3.70;99.90
20489;DHT22;10403;54.092;12.122;2024-02-26T02:30:11;3.60;99.90
20489;DHT22;10403;54.092;12.122;2024-02-26T02:32:40;3.60;99.90
20489;DHT22;10403;54.092;12.122;2024-02-26T02:35:11;3.60;99.90
20489;DHT22;10403;54.092;12.122;2024-02-26T02:37:38;3.50;99.90
20489;DHT22;10403;54.092;12.122;2024-02-26T02:40:06;3.50;99.90
20489;DHT22;10403;54.092;12.122;2024-02-26T02:42:33;3.50;99.90
20489;DHT22;10403;54.092;12.122;2024-02-26T02:45:01;3.50;99.90
20489;DHT22;10403;54.092;12.122;2024-02-26T02:47:28;3.40;99.90
20489;DHT22;10403;54.092;12.122;2024-02-26T02:49:55;3.50;99.90
20489;DHT22;10403;54.092;12.122;2024-02-26T02:52:22;3.40;99.90
20489;DHT22;10403;54.092;12.122;2024-02-26T02:54:50;3.40;99.90
20489;DHT22;10403;54.092;12.122;2024-02-26T02:57:17;3.30;99.90
20489;DHT22;10403;54.092;12.122;2024-02-26T02:59:44;3.30;99.90
20489;DHT22;10403;54.092;12.122;2024-02-26T03:02:11;3.30;99.90
20489;DHT22;10403;54.092;12.122;2024-02-26T03:04:39;3.30;99.90
20489;DHT22;10403;54.092;12.122;2024-02-26T03:07:06;3.30;99.90
20489;DHT22;10403;54.092;12.122;2024-02-26T03:09:33;3.30;99.90
20489;DHT22;10403;54.092;12.122;2024-02-26T03:12:00;3.30;99.90
20489;DHT22;10403;54.092;12.122;2024-02-26T03:14:28;3.20;99.90
20489;DHT22;10403;54.092;12.122;2024-02-26T03:16:55;3.20;99.90
20489;DHT22;10403;54.092;12.122;2024-02-26T03:19:22;3.20;99.90
20489;DHT22;10403;54.092;12.122;2024-02-26T03:21:52;3.20;99.90
20489;DHT22;10403;54.092;12.122;2024-02-26T03:24:19;3.20;99.90
20489;DHT22;10403;54.092;12.122;2024-02-26T03:26:47;3.20;99.90
20489;DHT22;10403;54.092;12.122;2024-02-26T03:29:14;3.20;99.90
20489;DHT22;10403;54.092;12.122;2024-02-26T03:31:41;3.20;99.90
20489;DHT22;10403;54.092;12.122;2024-02-26T03:38:31;3.10;99.90
20489;DHT22;10403;54.092;12.122;2024-02-26T03:40:58;3.10;99.90
20489;DHT22;10403;54.092;12.122;2024-02-26T03:43:26;3.10;99.90
20489;DHT22;10403;54.092;12.122;2024-02-26T03:45:53;3.10;99.90
20489;DHT22;10403;54.092;12.122;2024-02-26T03:48:20;3.10;99.90
20489;DHT22;10403;54.092;12.122;2024-02-26T03:50:48;3.10;99.90
20489;DHT22;10403;54.092;12.122;2024-02-26T03:53:15;3.10;99.90
20489;DHT22;10403;54.092;12.122;2024-02-26T03:55:42;3.00;99.90
20489;DHT22;10403;54.092;12.122;2024-02-26T03:58:12;3.00;99.90
20489;DHT22;10403;54.092;12.122;2024-02-26T04:00:39;3.10;99.90
20489;DHT22;10403;54.092;12.122;2024-02-26T04:03:06;2.90;99.90
20489;DHT22;10403;54.092;12.122;2024-02-26T04:05:34;2.90;99.90
20489;DHT22;10403;54.092;12.122;2024-02-26T04:08:01;3.00;99.90
20489;DHT22;10403;54.092;12.122;2024-02-26T04:10:28;3.00;99.90
20489;DHT22;10403;54.092;12.122;2024-02-26T04:12:55;3.00;99.90
20489;DHT22;10403;54.092;12.122;2024-02-26T04:15:22;3.00;99.90
20489;DHT22;10403;54.092;12.122;2024-02-26T04:17:50;3.00;99.90
20489;DHT22;10403;54.092;12.122;2024-02-26T04:20:17;3.00;99.90
20489;DHT22;10403;54.092;12.122;2024-02-26T04:22:44;2.90;99.90
20489;DHT22;10403;54.092;12.122;2024-02-26T04:25:12;3.00;99.90
20489;DHT22;10403;54.092;12.122;2024-02-26T04:27:39;3.00;99.90
20489;DHT22;10403;54.092;12.122;2024-02-26T04:30:07;3.00;99.90
20489;DHT22;10403;54.092;12.122;2024-02-26T04:32:35;2.90;99.90
20489;DHT22;10403;54.092;12.122;2024-02-26T04:35:02;2.90;99.90
20489;DHT22;10403;54.092;12.122;2024-02-26T04:37:30;2.90;99.90
20489;DHT22;10403;54.092;12.122;2024-02-26T04:40:00;2.90;99.90
20489;DHT22;10403;54.092;12.122;2024-02-26T04:42:28;2.90;99.90
20489;DHT22;10403;54.092;12.122;2024-02-26T04:44:55;2.90;99.90
20489;DHT22;10403;54.092;12.122;2024-02-26T04:47:22;2.90;99.90
20489;DHT22;10403;54.092;12.122;2024-02-26T04:49:50;2.90;99.90
20489;DHT22;10403;54.092;12.122;2024-02-26T04:52:18;2.90;99.90
20489;DHT22;10403;54.092;12.122;2024-02-26T04:54:46;2.80;99.90
20489;DHT22;10403;54.092;12.122;2024-02-26T04:57:13;2.80;99.90
20489;DHT22;10403;54.092;12.122;2024-02-26T04:59:40;2.80;99.90
20489;DHT22;10403;54.092;12.122;2024-02-26T05:02:09;2.80;99.90
20489;DHT22;10403;54.092;12.122;2024-02-26T05:04:37;2.80;99.90
20489;DHT22;10403;54.092;12.122;2024-02-26T05:07:05;2.80;99.90
20489;DHT22;10403;54.092;12.122;2024-02-26T05:09:33;2.80;99.90
20489;DHT22;10403;54.092;12.122;2024-02-26T05:12:00;2.70;99.90
20489;DHT22;10403;54.092;12.122;2024-02-26T05:14:27;2.70;99.90
20489;DHT22;10403;54.092;12.122;2024-02-26T05:16:54;2.80;99.90
20489;DHT22;10403;54.092;12.122;2024-02-26T05:19:23;2.70;99.90
20489;DHT22;10403;54.092;12.122;2024-02-26T05:21:50;2.70;99.90
20489;DHT22;10403;54.092;12.122;2024-02-26T05:24:17;2.70;99.90
20489;DHT22;10403;54.092;12.122;2024-02-26T05:26:45;2.70;99.90
20489;DHT22;10403;54.092;12.122;2024-02-26T05:29:15;2.70;99.90
20489;DHT22;10403;54.092;12.122;2024-02-26T05:31:43;2.70;99.90
20489;DHT22;10403;54.092;12.122;2024-02-26T05:34:10;2.70;99.90
20489;DHT22;10403;54.092;12.122;2024-02-26T05:36:37;2.70;99.90
20489;DHT22;10403;54.092;12.122;2024-02-26T05:39:05;2.70;99.90
20489;DHT22;10403;54.092;12.122;2024-02-26T05:41:33;2.70;99.90
20489;DHT22;10403;54.092;12.122;2024-02-26T05:44:00;2.70;99.90
20489;DHT22;10403;54.092;12.122;2024-02-26T05:46:28;2.70;99.90
20489;DHT22;10403;54.092;12.122;2024-02-26T05:48:55;2.70;99.90
20489;DHT22;10403;54.092;12.122;2024-02-26T05:51:22;2.70;99.90
20489;DHT22;10403;54.092;12.122;2024-02-26T05:53:49;2.70;99.90
20489;DHT22;10403;54.092;12.122;2024-02-26T05:56:22;2.70;99.90
20489;DHT22;10403;54.092;12.122;2024-02-26T05:58:50;2.70;99.90
20489;DHT22;10403;54.092;12.122;2024-02-26T06:01:19;2.70;99.90
20489;DHT22;10403;54.092;12.122;2024-02-26T06:03:46;2.70;99.90
20489;DHT22;10403;54.092;12.122;2024-02-26T06:06:13;2.70;99.90
20489;DHT22;10403;54.092;12.122;2024-02-26T06:08:43;2.80;99.90
20489;DHT22;10403;54.092;12.122;2024-02-26T06:11:10;2.80;99.90
20489;DHT22;10403;54.092;12.122;2024-02-26T06:13:37;2.80;99.90
20489;DHT22;10403;54.092;12.122;2024-02-26T06:16:05;2.80;99.90
20489;DHT22;10403;54.092;12.122;2024-02-26T06:18:32;2.80;99.90
20489;DHT22;10403;54.092;12.122;2024-02-26T06:21:00;2.80;99.90
20489;DHT22;10403;54.092;12.122;2024-02-26T06:23:27;2.80;99.90
20489;DHT22;10403;54.092;12.122;2024-02-26T06:25:54;2.90;99.90
20489;DHT22;10403;54.092;12.122;2024-02-26T06:28:22;2.90;99.90
20489;DHT22;10403;54.092;12.122;2024-02-26T06:30:49;2.90;99.90
20489;DHT22;10403;54.092;12.122;2024-02-26T06:33:17;3.00;99.90
20489;DHT22;10403;54.092;12.122;2024-02-26T06:35:44;2.90;99.90
20489;DHT22;10403;54.092;12.122;2024-02-26T06:38:12;2.90;99.90
20489;DHT22;10403;54.092;12.122;2024-02-26T06:40:40;3.00;99.90
20489;DHT22;10403;54.092;12.122;2024-02-26T06:43:08;3.10;99.90
20489;DHT22;10403;54.092;12.122;2024-02-26T06:45:35;3.00;99.90
20489;DHT22;10403;54.092;12.122;2024-02-26T06:48:02;3.00;99.90
20489;DHT22;10403;54.092;12.122;2024-02-26T06:50:30;3.00;99.90
20489;DHT22;10403;54.092;12.122;2024-02-26T06:52:58;3.10;99.90
20489;DHT22;10403;54.092;12.122;2024-02-26T06:55:25;3.00;99.90
20489;DHT22;10403;54.092;12.122;2024-02-26T06:57:52;3.00;99.90
20489;DHT22;10403;54.092;12.122;2024-02-26T07:00:20;3.00;99.90
20489;DHT22;10403;54.092;12.122;2024-02-26T07:02:47;3.00;99.90
20489;DHT22;10403;54.092;12.122;2024-02-26T07:05:14;3.00;99.90
20489;DHT22;10403;54.092;12.122;2024-02-26T07:07:42;3.00;99.90
20489;DHT22;10403;54.092;12.122;2024-02-26T07:10:09;3.00;99.90
20489;DHT22;10403;54.092;12.122;2024-02-26T07:12:39;3.00;99.90
20489;DHT22;10403;54.092;12.122;2024-02-26T07:15:07;3.10;99.90
20489;DHT22;10403;54.092;12.122;2024-02-26T07:17:37;3.10;99.90
20489;DHT22;10403;54.092;12.122;2024-02-26T07:20:06;3.10;99.90
20489;DHT22;10403;54.092;12.122;2024-02-26T07:22:36;3.20;99.90
20489;DHT22;10403;54.092;12.122;2024-02-26T07:25:04;3.20;99.90
20489;DHT22;10403;54.092;12.122;2024-02-26T07:27:33;3.20;99.90
20489;DHT22;10403;54.092;12.122;2024-02-26T07:30:01;3.30;99.90
20489;DHT22;10403;54.092;12.122;2024-02-26T07:32:28;3.30;99.90
20489;DHT22;10403;54.092;12.122;2024-02-26T07:34:55;3.30;99.90
20489;DHT22;10403;54.092;12.122;2024-02-26T07:37:22;3.40;99.90
20489;DHT22;10403;54.092;12.122;2024-02-26T07:39:50;3.40;99.90
20489;DHT22;10403;54.092;12.122;2024-02-26T07:42:17;3.40;99.90
20489;DHT22;10403;54.092;12.122;2024-02-26T07:44:44;3.40;99.90
20489;DHT22;10403;54.092;12.122;2024-02-26T07:47:11;3.50;99.90
20489;DHT22;10403;54.092;12.122;2024-02-26T07:49:40;3.50;99.90
20489;DHT22;10403;54.092;12.122;2024-02-26T07:52:08;3.50;99.90
20489;DHT22;10403;54.092;12.122;2024-02-26T07:54:35;3.50;99.90
20489;DHT22;10403;54.092;12.122;2024-02-26T07:57:02;3.60;99.90
20489;DHT22;10403;54.092;12.122;2024-02-26T07:59:32;3.60;99.90
20489;DHT22;10403;54.092;12.122;2024-02-26T08:01:59;3.60;99.90
20489;DHT22;10403;54.092;12.122;2024-02-26T08:04:30;3.70;99.90
20489;DHT22;10403;54.092;12.122;2024-02-26T08:06:58;3.70;99.90
20489;DHT22;10403;54.092;12.122;2024-02-26T08:09:25;3.80;99.90
20489;DHT22;10403;54.092;12.122;2024-02-26T08:11:53;3.80;99.90
20489;DHT22;10403;54.092;12.122;2024-02-26T08:14:20;3.80;99.90
20489;DHT22;10403;54.092;12.122;2024-02-26T08:16:47;3.90;99.90
20489;DHT22;10403;54.092;12.122;2024-02-26T08:19:15;3.90;99.90
20489;DHT22;10403;54.092;12.122;2024-02-26T08:21:44;3.90;99.90
20489;DHT22;10403;54.092;12.122;2024-02-26T08:24:11;3.90;99.90
20489;DHT22;10403;54.092;12.122;2024-02-26T08:26:39;4.00;99.90
20489;DHT22;10403;54.092;12.122;2024-02-26T08:29:06;4.00;99.90
20489;DHT22;10403;54.092;12.122;2024-02-26T08:31:33;4.10;99.90
20489;DHT22;10403;54.092;12.122;2024-02-26T08:34:04;4.00;99.90
20489;DHT22;10403;54.092;12.122;2024-02-26T08:36:33;4.00;99.90
20489;DHT22;10403;54.092;12.122;2024-02-26T08:39:01;4.10;99.90
20489;DHT22;10403;54.092;12.122;2024-02-26T08:41:29;4.10;99.90
20489;DHT22;10403;54.092;12.122;2024-02-26T08:43:57;4.20;99.90
20489;DHT22;10403;54.092;12.122;2024-02-26T08:46:25;4.20;99.90
20489;DHT22;10403;54.092;12.122;2024-02-26T08:48:52;4.20;99.90
20489;DHT22;10403;54.092;12.122;2024-02-26T08:51:20;4.30;99.90
20489;DHT22;10403;54.092;12.122;2024-02-26T08:53:47;4.30;99.90
20489;DHT22;10403;54.092;12.122;2024-02-26T08:56:16;4.30;99.90
20489;DHT22;10403;54.092;12.122;2024-02-26T08:58:46;4.40;99.90
20489;DHT22;10403;54.092;12.122;2024-02-26T09:01:15;4.50;99.90
20489;DHT22;10403;54.092;12.122;2024-02-26T09:03:43;4.50;99.90
20489;DHT22;10403;54.092;12.122;2024-02-26T09:06:15;4.60;99.90
20489;DHT22;10403;54.092;12.122;2024-02-26T09:08:42;4.60;99.90
20489;DHT22;10403;54.092;12.122;2024-02-26T09:11:10;4.70;99.90
20489;DHT22;10403;54.092;12.122;2024-02-26T09:13:37;4.70;99.90
20489;DHT22;10403;54.092;12.122;2024-02-26T09:16:05;4.80;99.90
20489;DHT22;10403;54.092;12.122;2024-02-26T09:18:33;4.80;99.90
20489;DHT22;10403;54.092;12.122;2024-02-26T09:21:04;4.90;99.90
20489;DHT22;10403;54.092;12.122;2024-02-26T09:23:33;4.90;99.90
20489;DHT22;10403;54.092;12.122;2024-02-26T09:26:02;4.90;99.90
20489;DHT22;10403;54.092;12.122;2024-02-26T09:28:29;5.00;99.90
20489;DHT22;10403;54.092;12.122;2024-02-26T09:31:01;5.00;99.90
20489;DHT22;10403;54.092;12.122;2024-02-26T09:33:29;5.00;99.90
20489;DHT22;10403;54.092;12.122;2024-02-26T09:35:56;5.10;99.90
20489;DHT22;10403;54.092;12.122;2024-02-26T09:38:24;5.10;99.90
20489;DHT22;10403;54.092;12.122;2024-02-26T09:40:51;5.20;99.90
20489;DHT22;10403;54.092;12.122;2024-02-26T09:43:21;5.20;99.90
20489;DHT22;10403;54.092;12.122;2024-02-26T09:45:53;5.20;99.90
20489;DHT22;10403;54.092;12.122;2024-02-26T09:48:22;5.30;99.90
20489;DHT22;10403;54.092;12.122;2024-02-26T09:50:51;5.40;99.90
20489;DHT22;10403;54.092;12.122;2024-02-26T09:53:21;5.40;99.90
20489;DHT22;10403;54.092;12.122;2024-02-26T09:55:49;5.40;99.90
20489;DHT22;10403;54.092;12.122;2024-02-26T09:58:17;5.50;99.90
20489;DHT22;10403;54.092;12.122;2024-02-26T10:00:51;5.50;99.90
20489;DHT22;10403;54.092;12.122;2024-02-26T10:03:21;5.60;99.90
20489;DHT22;10403;54.092;12.122;2024-02-26T10:05:51;5.70;99.90
20489;DHT22;10403;54.092;12.122;2024-02-26T10:08:23;5.70;99.90
20489;DHT22;10403;54.092;12.122;2024-02-26T10:10:51;5.80;99.90
20489;DHT22;10403;54.092;12.122;2024-02-26T10:13:19;5.90;99.90
20489;DHT22;10403;54.092;12.122;2024-02-26T10:15:47;5.90;99.90
20489;DHT22;10403;54.092;12.122;2024-02-26T10:18:15;6.00;99.90
20489;DHT22;10403;54.092;12.122;2024-02-26T10:20:42;6.00;99.90
20489;DHT22;10403;54.092;12.122;2024-02-26T10:23:10;6.10;99.90
20489;DHT22;10403;54.092;12.122;2024-02-26T10:25:37;6.20;99.90
20489;DHT22;10403;54.092;12.122;2024-02-26T10:28:19;6.20;99.90
20489;DHT22;10403;54.092;12.122;2024-02-26T10:30:46;6.30;99.90
20489;DHT22;10403;54.092;12.122;2024-02-26T10:33:14;6.40;99.90
20489;DHT22;10403;54.092;12.122;2024-02-26T10:35:48;6.40;99.90
20489;DHT22;10403;54.092;12.122;2024-02-26T10:38:15;6.50;99.90
20489;DHT22;10403;54.092;12.122;2024-02-26T10:40:49;6.50;99.90
20489;DHT22;10403;54.092;12.122;2024-02-26T10:43:16;6.60;99.90
20489;DHT22;10403;54.092;12.122;2024-02-26T10:45:45;6.60;99.90
20489;DHT22;10403;54.092;12.122;2024-02-26T10:48:14;6.70;99.90
20489;DHT22;10403;54.092;12.122;2024-02-26T10:50:43;6.70;99.90
20489;DHT22;10403;54.092;12.122;2024-02-26T10:53:15;6.80;99.90
20489;DHT22;10403;54.092;12.122;2024-02-26T10:55:49;6.80;99.90
20489;DHT22;10403;54.092;12.122;2024-02-26T10:58:22;6.80;99.90
20489;DHT22;10403;54.092;12.122;2024-02-26T11:00:52;6.90;99.90
20489;DHT22;10403;54.092;12.122;2024-02-26T11:03:20;7.00;99.90
20489;DHT22;10403;54.092;12.122;2024-02-26T11:05:49;6.90;99.90
20489;DHT22;10403;54.092;12.122;2024-02-26T11:08:21;7.00;99.90
20489;DHT22;10403;54.092;12.122;2024-02-26T11:10:52;7.00;99.90
20489;DHT22;10403;54.092;12.122;2024-02-26T11:13:21;7.00;99.90
20489;DHT22;10403;54.092;12.122;2024-02-26T11:15:54;7.10;99.90
20489;DHT22;10403;54.092;12.122;2024-02-26T11:18:26;7.10;99.90
20489;DHT22;10403;54.092;12.122;2024-02-26T11:20:55;7.10;99.90
20489;DHT22;10403;54.092;12.122;2024-02-26T11:23:24;7.20;99.90
20489;DHT22;10403;54.092;12.122;2024-02-26T11:25:53;7.20;99.90
20489;DHT22;10403;54.092;12.122;2024-02-26T11:28:24;7.30;99.90
20489;DHT22;10403;54.092;12.122;2024-02-26T11:30:54;7.30;99.90
20489;DHT22;10403;54.092;12.122;2024-02-26T11:33:24;7.40;99.90
20489;DHT22;10403;54.092;12.122;2024-02-26T11:35:55;7.50;99.90
20489;DHT22;10403;54.092;12.122;2024-02-26T11:38:25;7.50;99.90
20489;DHT22;10403;54.092;12.122;2024-02-26T11:40:54;7.50;99.90
20489;DHT22;10403;54.092;12.122;2024-02-26T11:43:53;7.50;99.90
20489;DHT22;10403;54.092;12.122;2024-02-26T11:46:33;7.60;99.90
20489;DHT22;10403;54.092;12.122;2024-02-26T11:49:29;7.60;99.90
20489;DHT22;10403;54.092;12.122;2024-02-26T11:51:58;7.70;99.90
20489;DHT22;10403;54.092;12.122;2024-02-26T11:54:46;7.70;99.90
20489;DHT22;10403;54.092;12.122;2024-02-26T11:57:38;7.80;99.90
20489;DHT22;10403;54.092;12.122;2024-02-26T12:03:00;7.80;99.90
20489;DHT22;10403;54.092;12.122;2024-02-26T12:05:33;7.90;99.90
20489;DHT22;10403;54.092;12.122;2024-02-26T12:08:07;7.90;99.90
20489;DHT22;10403;54.092;12.122;2024-02-26T12:10:36;7.90;99.90
20489;DHT22;10403;54.092;12.122;2024-02-26T12:13:10;8.00;99.90
20489;DHT22;10403;54.092;12.122;2024-02-26T12:15:56;8.00;99.90
20489;DHT22;10403;54.092;12.122;2024-02-26T12:18:25;8.00;99.90
20489;DHT22;10403;54.092;12.122;2024-02-26T12:21:03;8.10;99.90
20489;DHT22;10403;54.092;12.122;2024-02-26T12:23:32;8.10;99.90
20489;DHT22;10403;54.092;12.122;2024-02-26T12:26:00;8.10;99.90
20489;DHT22;10403;54.092;12.122;2024-02-26T12:28:33;8.00;99.90
20489;DHT22;10403;54.092;12.122;2024-02-26T12:31:01;8.10;99.90
20489;DHT22;10403;54.092;12.122;2024-02-26T12:33:29;8.00;99.90
20489;DHT22;10403;54.092;12.122;2024-02-26T12:35:58;8.00;99.90
20489;DHT22;10403;54.092;12.122;2024-02-26T12:38:26;8.00;99.90
20489;DHT22;10403;54.092;12.122;2024-02-26T12:40:54;8.00;99.90
20489;DHT22;10403;54.092;12.122;2024-02-26T12:43:22;8.00;99.90
20489;DHT22;10403;54.092;12.122;2024-02-26T12:45:49;7.90;99.90
20489;DHT22;10403;54.092;12.122;2024-02-26T12:48:17;7.90;99.90
20489;DHT22;10403;54.092;12.122;2024-02-26T12:50:46;7.90;99.90
20489;DHT22;10403;54.092;12.122;2024-02-26T12:53:17;7.90;99.90
20489;DHT22;10403;54.092;12.122;2024-02-26T12:55:45;7.90;99.90
20489;DHT22;10403;54.092;12.122;2024-02-26T12:58:13;7.90;99.90
20489;DHT22;10403;54.092;12.122;2024-02-26T13:00:42;7.90;99.90
20489;DHT22;10403;54.092;12.122;2024-02-26T13:03:10;7.90;99.90
20489;DHT22;10403;54.092;12.122;2024-02-26T13:05:37;7.90;99.90
20489;DHT22;10403;54.092;12.122;2024-02-26T13:08:05;7.90;99.90
20489;DHT22;10403;54.092;12.122;2024-02-26T13:10:36;7.90;99.90
20489;DHT22;10403;54.092;12.122;2024-02-26T13:13:04;7.90;99.90
20489;DHT22;10403;54.092;12.122;2024-02-26T13:15:32;7.90;99.90
20489;DHT22;10403;54.092;12.122;2024-02-26T13:18:12;7.90;99.90
20489;DHT22;10403;54.092;12.122;2024-02-26T13:20:41;7.90;99.90
20489;DHT22;10403;54.092;12.122;2024-02-26T13:23:11;7.90;99.90
20489;DHT22;10403;54.092;12.122;2024-02-26T13:25:40;7.90;99.90
20489;DHT22;10403;54.092;12.122;2024-02-26T13:28:17;7.80;99.90
20489;DHT22;10403;54.092;12.122;2024-02-26T13:30:53;7.80;99.90
20489;DHT22;10403;54.092;12.122;2024-02-26T13:33:28;7.80;99.90
20489;DHT22;10403;54.092;12.122;2024-02-26T13:35:57;7.80;99.90
20489;DHT22;10403;54.092;12.122;2024-02-26T13:38:26;7.70;99.90
20489;DHT22;10403;54.092;12.122;2024-02-26T13:40:56;7.70;99.90
20489;DHT22;10403;54.092;12.122;2024-02-26T13:43:26;7.70;99.90
20489;DHT22;10403;54.092;12.122;2024-02-26T13:45:53;7.70;99.90
20489;DHT22;10403;54.092;12.122;2024-02-26T13:48:21;7.70;99.90
20489;DHT22;10403;54.092;12.122;2024-02-26T13:50:50;7.70;99.90
20489;DHT22;10403;54.092;12.122;2024-02-26T13:53:20;7.70;99.90
20489;DHT22;10403;54.092;12.122;2024-02-26T13:55:50;7.60;99.90
20489;DHT22;10403;54.092;12.122;2024-02-26T13:58:18;7.60;99.90
20489;DHT22;10403;54.092;12.122;2024-02-26T14:00:49;7.60;99.90
20489;DHT22;10403;54.092;12.122;2024-02-26T14:03:17;7.60;99.90
20489;DHT22;10403;54.092;12.122;2024-02-26T14:05:45;7.60;99.90
20489;DHT22;10403;54.092;12.122;2024-02-26T14:08:14;7.60;99.90
20489;DHT22;10403;54.092;12.122;2024-02-26T14:10:42;7.60;99.90
20489;DHT22;10403;54.092;12.122;2024-02-26T14:13:10;7.60;99.90
20489;DHT22;10403;54.092;12.122;2024-02-26T14:15:37;7.60;99.90
20489;DHT22;10403;54.092;12.122;2024-02-26T14:18:07;7.60;99.90
20489;DHT22;10403;54.092;12.122;2024-02-26T14:20:35;7.60;99.90
20489;DHT22;10403;54.092;12.122;2024-02-26T14:23:02;7.60;99.90
20489;DHT22;10403;54.092;12.122;2024-02-26T14:25:29;7.60;99.90
20489;DHT22;10403;54.092;12.122;2024-02-26T14:27:57;7.70;99.90
20489;DHT22;10403;54.092;12.122;2024-02-26T14:30:26;7.70;99.90
20489;DHT22;10403;54.092;12.122;2024-02-26T14:32:54;7.80;99.90
20489;DHT22;10403;54.092;12.122;2024-02-26T14:35:21;7.80;99.90
20489;DHT22;10403;54.092;12.122;2024-02-26T14:37:49;7.80;99.90
20489;DHT22;10403;54.092;12.122;2024-02-26T14:40:18;7.80;99.90
20489;DHT22;10403;54.092;12.122;2024-02-26T14:42:46;7.80;99.90
20489;DHT22;10403;54.092;12.122;2024-02-26T14:45:13;7.80;99.90
20489;DHT22;10403;54.092;12.122;2024-02-26T14:47:41;7.80;99.90
20489;DHT22;10403;54.092;12.122;2024-02-26T14:50:08;7.80;99.90
20489;DHT22;10403;54.092;12.122;2024-02-26T14:52:36;7.80;99.90
20489;DHT22;10403;54.092;12.122;2024-02-26T14:55:03;7.80;99.90
20489;DHT22;10403;54.092;12.122;2024-02-26T14:57:32;7.80;99.90
20489;DHT22;10403;54.092;12.122;2024-02-26T15:00:00;7.80;99.90
20489;DHT22;10403;54.092;12.122;2024-02-26T15:02:28;7.70;99.90
20489;DHT22;10403;54.092;12.122;2024-02-26T15:04:55;7.60;99.90
20489;DHT22;10403;54.092;12.122;2024-02-26T15:07:22;7.60;99.90
20489;DHT22;10403;54.092;12.122;2024-02-26T15:09:50;7.50;99.90
20489;DHT22;10403;54.092;12.122;2024-02-26T15:12:17;7.50;99.90
20489;DHT22;10403;54.092;12.122;2024-02-26T15:14:50;7.50;99.90
20489;DHT22;10403;54.092;12.122;2024-02-26T15:17:17;7.50;99.90
20489;DHT22;10403;54.092;12.122;2024-02-26T15:19:45;7.50;99.90
20489;DHT22;10403;54.092;12.122;2024-02-26T15:22:12;7.50;99.90
20489;DHT22;10403;54.092;12.122;2024-02-26T15:24:43;7.40;99.90
20489;DHT22;10403;54.092;12.122;2024-02-26T15:27:11;7.40;99.90
20489;DHT22;10403;54.092;12.122;2024-02-26T15:29:39;7.30;99.90
20489;DHT22;10403;54.092;12.122;2024-02-26T15:32:06;7.30;99.90
20489;DHT22;10403;54.092;12.122;2024-02-26T15:34:33;7.30;99.90
20489;DHT22;10403;54.092;12.122;2024-02-26T15:37:01;7.20;99.90
20489;DHT22;10403;54.092;12.122;2024-02-26T15:39:29;7.20;99.90
20489;DHT22;10403;54.092;12.122;2024-02-26T15:41:56;7.20;99.90
20489;DHT22;10403;54.092;12.122;2024-02-26T15:44:24;7.20;99.90
20489;DHT22;10403;54.092;12.122;2024-02-26T15:46:51;7.10;99.90